createdAt,value
2023-03-26T00:04:44.881Z,10.3
2023-03-26T00:14:44.846Z,10.3
2023-03-26T00:24:44.843Z,10.3
2023-03-26T00:34:44.815Z,10.4
2023-03-26T00:44:44.812Z,10.3
2023-03-26T00:54:44.801Z,10.3
2023-03-26T01:04:44.832Z,10.3
2023-03-26T01:14:44.758Z,10.3
2023-03-26T01:24:44.762Z,10.3
2023-03-26T01:34:44.714Z,10.2
2023-03-26T01:44:44.753Z,10.2
2023-03-26T01:54:44.699Z,10.2
2023-03-26T02:04:44.677Z,10.1
2023-03-26T02:14:44.678Z,10
2023-03-26T02:24:44.651Z,9.9
2023-03-26T02:34:44.605Z,9.8
2023-03-26T02:44:44.605Z,9.6
2023-03-26T02:54:44.590Z,9.4
2023-03-26T03:04:44.570Z,9.2
2023-03-26T03:14:44.561Z,9.2
2023-03-26T03:24:44.556Z,9.2
2023-03-26T03:34:44.546Z,9.2
2023-03-26T03:44:44.508Z,9.2
2023-03-26T03:54:44.504Z,9.2
2023-03-26T04:04:44.484Z,9.2
2023-03-26T04:14:44.472Z,9.6
2023-03-26T04:24:44.459Z,9.8
2023-03-26T04:34:44.449Z,9.9
2023-03-26T04:44:44.406Z,9.8
2023-03-26T04:54:44.424Z,9.6
2023-03-26T05:04:44.397Z,9.7
2023-03-26T05:14:44.368Z,9.7
2023-03-26T05:24:44.343Z,9.7
2023-03-26T05:34:44.324Z,9.6
2023-03-26T05:44:44.317Z,9.6
2023-03-26T05:54:44.345Z,9.5
2023-03-26T06:04:44.388Z,9.4
2023-03-26T06:14:44.274Z,9.4
2023-03-26T06:24:44.309Z,9.3
2023-03-26T06:34:44.235Z,9.3
2023-03-26T06:44:44.222Z,9.1
2023-03-26T06:54:44.226Z,9
2023-03-26T07:04:44.195Z,8.8
2023-03-26T07:14:44.203Z,8.8
2023-03-26T07:24:44.205Z,8.9
2023-03-26T07:34:44.166Z,9.1
2023-03-26T07:44:44.132Z,9.1
2023-03-26T07:54:44.117Z,9.1
2023-03-26T08:04:44.193Z,9.2
2023-03-26T08:14:44.094Z,9.1
2023-03-26T08:24:44.067Z,8.9
2023-03-26T08:34:44.068Z,8.9
2023-03-26T08:44:44.042Z,8.8
2023-03-26T08:54:44.036Z,8.7
2023-03-26T09:04:44.047Z,8.7
2023-03-26T09:14:43.992Z,8.8
2023-03-26T09:24:43.987Z,8.7
2023-03-26T09:34:43.968Z,8.8
2023-03-26T09:44:43.988Z,9
2023-03-26T09:54:43.943Z,9.1
2023-03-26T10:04:43.927Z,9.1
2023-03-26T10:14:43.902Z,9.3
2023-03-26T10:24:43.902Z,9.5
2023-03-26T10:34:43.869Z,9.9
2023-03-26T10:44:43.854Z,10
2023-03-26T10:54:43.836Z,10.4
2023-03-26T11:04:43.878Z,11.2
2023-03-26T11:14:43.814Z,11.3
2023-03-26T11:24:43.808Z,11.2
2023-03-26T11:34:43.777Z,11.4
2023-03-26T11:44:43.767Z,11.7
2023-03-26T11:54:43.782Z,12.2
2023-03-26T12:04:43.757Z,12.2
2023-03-26T12:14:43.718Z,12.9
2023-03-26T12:24:43.705Z,13.8
2023-03-26T12:34:43.722Z,15.1
2023-03-26T12:44:57.836Z,15.4
2023-03-26T12:54:43.648Z,14.9
2023-03-26T13:04:55.041Z,14.9
2023-03-26T13:14:43.610Z,14.8
2023-03-26T13:24:43.601Z,14
2023-03-26T13:34:43.580Z,11.5
2023-03-26T13:44:43.552Z,10.7
2023-03-26T13:54:43.522Z,12
2023-03-26T14:04:43.513Z,13
2023-03-26T14:14:43.510Z,14.6
2023-03-26T14:24:43.486Z,17.4
2023-03-26T14:34:43.471Z,19.1
2023-03-26T14:44:48.469Z,20.1
2023-03-26T14:54:43.438Z,20.4
2023-03-26T15:04:43.415Z,19.6
2023-03-26T15:14:43.388Z,18.3
2023-03-26T15:24:43.387Z,17.3
2023-03-26T15:34:43.352Z,16.2
2023-03-26T15:44:53.271Z,15.4
2023-03-26T15:54:43.519Z,15.2
2023-03-26T16:04:50.437Z,14.9
2023-03-26T16:14:43.279Z,14.3
2023-03-26T16:24:43.257Z,13.8
2023-03-26T16:34:43.224Z,13.5
2023-03-26T16:44:43.216Z,13.2
2023-03-26T16:54:43.216Z,13
2023-03-26T17:04:43.210Z,12.8
2023-03-26T17:14:43.163Z,12.6
2023-03-26T17:24:43.167Z,12.3
2023-03-26T17:34:43.134Z,11.9
2023-03-26T17:44:43.108Z,11.6
2023-03-26T17:54:43.118Z,11.3
2023-03-26T18:04:43.089Z,11
2023-03-26T18:14:43.074Z,10.8
2023-03-26T18:24:43.054Z,10.6
2023-03-26T18:34:43.031Z,10.3
2023-03-26T18:44:43.032Z,9.9
2023-03-26T18:54:43.003Z,9.3
2023-03-26T19:04:46.120Z,9.1
2023-03-26T19:14:42.956Z,8.7
2023-03-26T19:24:42.983Z,8.3
2023-03-26T19:34:42.919Z,8
2023-03-26T19:44:42.927Z,7.9
2023-03-26T19:54:58.996Z,7.7
2023-03-26T20:04:42.898Z,7.6
2023-03-26T20:14:42.900Z,7.6
2023-03-26T20:24:42.874Z,7.6
2023-03-26T20:34:42.877Z,7.6
2023-03-26T20:44:42.881Z,7.6
2023-03-26T20:54:42.831Z,7.7
2023-03-26T21:04:42.800Z,7.6
2023-03-26T21:14:42.809Z,7.7
2023-03-26T21:24:42.772Z,7.6
2023-03-26T21:34:51.595Z,7.6
2023-03-26T21:44:42.759Z,7.5
2023-03-26T21:54:42.746Z,7.4
2023-03-26T22:04:42.713Z,7.1
2023-03-26T22:14:42.713Z,6.9
2023-03-26T22:24:42.710Z,6.7
2023-03-26T22:34:42.674Z,6.5
2023-03-26T22:44:42.663Z,6.3
2023-03-26T22:54:42.689Z,6
2023-03-26T23:04:42.754Z,5.8
2023-03-26T23:14:42.639Z,5.7
2023-03-26T23:24:42.614Z,5.6
2023-03-26T23:34:51.664Z,5.4
2023-03-26T23:44:42.633Z,5.4
2023-03-26T23:54:42.599Z,5.3
